Pauls Valley, OK

1:33 AM CDT on April 25, 2015 (GMT -0500)
Pauls Valley Municipal | | Change Station
CLOSE
Current Station
Airport
Location: Pauls Valley,
Elevation: 968 ft
Nearby Weather Stations

Elev 968 ft 34.71 °N, 97.22 °W | Updated 18 minutes ago

Overcast
Overcast
61 °F
Feels Like 61 °F
N
6
Wind Variable Wind from South

Today
High -- | Low -- °F
--% Chance of Precip.
Yesterday
High -- | Low -- °F
Precip. -- in
6:45 AM 8:08 PM
Waxing Crescent, 43% visible
Pressure 29.63 in
Visibility 10.0 miles
Clouds Overcast 700 ft
Dew Point 60 °F
Humidity 96%
Rainfall 0.00 in
Snow Depth Not available.
UV 0 out of 12
Pollen 8.80 out of 12
Air Quality Not available.
Flu Activity Local Activity
METAR KPVJ 250615Z AUTO 17005KT 10SM OVC007 16/16 A2963 RMK AO2 T01610155

More Conditions Fewer Conditions

Pressure 29.63 in
Visibility 10.0 miles
Clouds Overcast 700 ft
Dew Point 60 °F
Humidity 96%
Rainfall 0.00 in
Snow Depth Not available.
UV 0 out of 12
Pollen 8.80 out of 12
Air Quality Not available.
Flu Activity Local Activity
METAR KPVJ 250615Z AUTO 17005KT 10SM OVC007 16/16 A2963 RMK AO2 T01610155

More Conditions Fewer Conditions

10-Day Weather Forecast

Almanac

Astronomy

Apr. 25, 2015 Rise Set
Actual Time
Civil Twilight
Nautical Twilight
Astronomical Twilight
Moon
Length of Visible Light
Length of Day
Tomorrow will be .
, % of the Moon is Illuminated

Today's Extremes

State Highs State Lows

Community

WunderPhotos

Upload Photos

1,816,624 photos uploaded!

WunderBlogs® & News

Nearby

Air Quality

  Air Quality AQ Index Pollutant
Not available.

Snow Depth

Station Depth Elevation

Earthquake Activity

City Distance Mag. Time & Date
Minimum magnitude displayed is 2.5.

Coastal Water Temperatures

Place Temperature

Stations

Nearby Weather Stations

Station Location Temp. Windchill Dew Point Humidity Wind Precip. Elev Updated Type